Donna York — WDE8199 — position and weather

sailwx.info

Track history (hours):
 
Tides and Currents Weather Stations Pressure Air Temp Water Temp Dewpoint Dewpoint Depression Visibility Wind Speed Wind Dir Waves Ship Positions

Donna York

Owner: Crounse Corporation, Maysville, KY. More information available from US FCC via Universal Licensing System and Coast Guard Vessel Documentation Center.

Last reported at 2015-May-16 06:32 UTC. Time now 2015-May-23 07:17 UTC.
Position N 38°56' W 084°52'.

Length 34 m.

Type: Towing. MMSI: 367402680.

Date/timePositionNaut miles runAvg speedWind from/ knotsBaromVisibWave heightAir tempDewpointWater temp
2015-May-16 06:32N 38°56' W 084°52'7 4.6
2015-May-16 05:04N 39°03' W 084°53'4 4.7
2015-May-16 04:08N 39°06' W 084°50'3 5.1
2015-May-16 03:33N 39°08' W 084°47'4 4.0
2015-May-16 02:33N 39°06' W 084°42'5 5.3
2015-May-16 01:32N 39°05' W 084°35'5 4.9
2015-May-16 00:33N 39°06' W 084°29'4 3.7
2015-May-15 23:34N 39°04' W 084°26'6 5.6
2015-May-15 22:33N 39°01' W 084°19'5 5.5
2015-May-15 21:33N 38°56' W 084°17'5 4.7
2015-May-15 20:33N 38°52' W 084°14'0 0.2
2015-May-15 19:32N 38°52' W 084°14'4 3.8
2015-May-15 18:32N 38°48' W 084°13'26 3.2
2015-May-15 10:24N 38°38' W 083°42'0 0.0
2015-May-15 09:05N 38°38' W 083°42'0 0.0
2015-May-15 05:33N 38°38' W 083°42'0 0.0
2015-May-15 03:16N 38°38' W 083°42'0 0.0
2015-May-13 11:22N 38°38' W 083°42'0 0.0
2015-May-11 12:33N 38°38' W 083°42'0 0.0
2015-May-11 09:03N 38°38' W 083°42'0 0.0
2015-May-10 14:10N 38°38' W 083°42'0 0.0
2015-May-10 13:32N 38°38' W 083°42'0 0.0
2015-May-10 12:33N 38°38' W 083°42'0 0.0
2015-May-10 11:30N 38°38' W 083°42'0 0.0
2015-May-10 10:23N 38°38' W 083°42'0 0.0
2015-May-10 09:03N 38°38' W 083°42'0 0.0
2015-May-10 07:32N 38°38' W 083°42'0 0.0
2015-May-10 06:22N 38°38' W 083°42'0 0.0
2015-May-09 06:18N 38°38' W 083°42'0 0.0
2015-May-09 05:14N 38°38' W 083°42'0 0.0
2015-May-09 04:27N 38°38' W 083°42'0 0.0
2015-May-08 14:08N 38°38' W 083°42'0 0.0
2015-May-08 13:33N 38°38' W 083°42'0 0.0
2015-May-08 12:32N 38°38' W 083°42'0 0.0
2015-May-08 11:30N 38°38' W 083°42'0 0.0
2015-May-08 10:33N 38°38' W 083°42'0 0.0
2015-May-08 09:31N 38°38' W 083°42'0 0.0
2015-May-08 08:33N 38°38' W 083°42'0 0.0
2015-May-08 07:32N 38°38' W 083°42'0 0.0
2015-May-08 06:32N 38°38' W 083°42'0 0.0
2015-May-08 05:32N 38°38' W 083°42'0 0.0
2015-May-07 14:16N 38°38' W 083°42'0 0.0
2015-May-07 13:32N 38°38' W 083°42'0 0.0
2015-May-07 12:32N 38°38' W 083°42'0 0.0
2015-May-07 11:34N 38°38' W 083°42'0 0.0
2015-May-07 10:28N 38°38' W 083°42'0 0.0
2015-May-07 09:31N 38°38' W 083°42'0 0.0
2015-May-07 08:25N 38°38' W 083°42'0 0.0
2015-May-07 07:32N 38°38' W 083°42'0 0.0
2015-May-06 14:18N 38°38' W 083°42'0 0.0
2015-May-06 13:33N 38°38' W 083°42'0 0.0
2015-May-06 12:25N 38°38' W 083°42'0 0.0
2015-May-06 11:21N 38°38' W 083°42'  
Track history (hours):
 
Tides and Currents Weather Stations Pressure Air Temp Water Temp Dewpoint Dewpoint Depression Visibility Wind Speed Wind Dir Waves Ship Positions

Donna York

Owner: Crounse Corporation, Maysville, KY. More information available from US FCC via Universal Licensing System and Coast Guard Vessel Documentation Center.

Last reported at 2015-May-16 06:32 UTC. Time now 2015-May-23 07:17 UTC.
Position N 38°56' W 084°52'.

Length 34 m.

Type: Towing. MMSI: 367402680.

Date/timePositionNaut miles runAvg speedWind from/ knotsBaromVisibWave heightAir tempDewpointWater temp
2015-May-16 06:32N 38°56' W 084°52'7 4.6
2015-May-16 05:04N 39°03' W 084°53'4 4.7
2015-May-16 04:08N 39°06' W 084°50'3 5.1
2015-May-16 03:33N 39°08' W 084°47'4 4.0
2015-May-16 02:33N 39°06' W 084°42'5 5.3
2015-May-16 01:32N 39°05' W 084°35'5 4.9
2015-May-16 00:33N 39°06' W 084°29'4 3.7
2015-May-15 23:34N 39°04' W 084°26'6 5.6
2015-May-15 22:33N 39°01' W 084°19'5 5.5
2015-May-15 21:33N 38°56' W 084°17'5 4.7
2015-May-15 20:33N 38°52' W 084°14'0 0.2
2015-May-15 19:32N 38°52' W 084°14'4 3.8
2015-May-15 18:32N 38°48' W 084°13'26 3.2
2015-May-15 10:24N 38°38' W 083°42'0 0.0
2015-May-15 09:05N 38°38' W 083°42'0 0.0
2015-May-15 05:33N 38°38' W 083°42'0 0.0
2015-May-15 03:16N 38°38' W 083°42'0 0.0
2015-May-13 11:22N 38°38' W 083°42'0 0.0
2015-May-11 12:33N 38°38' W 083°42'0 0.0
2015-May-11 09:03N 38°38' W 083°42'0 0.0
2015-May-10 14:10N 38°38' W 083°42'0 0.0
2015-May-10 13:32N 38°38' W 083°42'0 0.0
2015-May-10 12:33N 38°38' W 083°42'0 0.0
2015-May-10 11:30N 38°38' W 083°42'0 0.0
2015-May-10 10:23N 38°38' W 083°42'0 0.0
2015-May-10 09:03N 38°38' W 083°42'0 0.0
2015-May-10 07:32N 38°38' W 083°42'0 0.0
2015-May-10 06:22N 38°38' W 083°42'0 0.0
2015-May-09 06:18N 38°38' W 083°42'0 0.0
2015-May-09 05:14N 38°38' W 083°42'0 0.0
2015-May-09 04:27N 38°38' W 083°42'0 0.0
2015-May-08 14:08N 38°38' W 083°42'0 0.0
2015-May-08 13:33N 38°38' W 083°42'0 0.0
2015-May-08 12:32N 38°38' W 083°42'0 0.0
2015-May-08 11:30N 38°38' W 083°42'0 0.0
2015-May-08 10:33N 38°38' W 083°42'0 0.0
2015-May-08 09:31N 38°38' W 083°42'0 0.0
2015-May-08 08:33N 38°38' W 083°42'0 0.0
2015-May-08 07:32N 38°38' W 083°42'0 0.0
2015-May-08 06:32N 38°38' W 083°42'0 0.0
2015-May-08 05:32N 38°38' W 083°42'0 0.0
2015-May-07 14:16N 38°38' W 083°42'0 0.0
2015-May-07 13:32N 38°38' W 083°42'0 0.0
2015-May-07 12:32N 38°38' W 083°42'0 0.0
2015-May-07 11:34N 38°38' W 083°42'0 0.0
2015-May-07 10:28N 38°38' W 083°42'0 0.0
2015-May-07 09:31N 38°38' W 083°42'0 0.0
2015-May-07 08:25N 38°38' W 083°42'0 0.0
2015-May-07 07:32N 38°38' W 083°42'0 0.0
2015-May-06 14:18N 38°38' W 083°42'0 0.0
2015-May-06 13:33N 38°38' W 083°42'0 0.0
2015-May-06 12:25N 38°38' W 083°42'0 0.0
2015-May-06 11:21N 38°38' W 083°42'  

Dump ship's entire track history